Time;durP1;ratioP1;P1;durP2;ratioP2;P2;SDS_P1;SDS_P2;PMS_P1;PMS_P2;Temp;Humidity;BMP_temperature;BMP_pressure;BME280_temperature;BME280_humidity;BME280_pressure;Samples;Min_cycle;Max_cycle;Signal;HPM_P1;HPM_P2
2023/08/25 00:01:53;;;;;;;5.82;2.47;;;21.90;99.90;;;;;;4158981;28;20034;-70
2023/08/25 00:03:54;;;;;;;5.45;2.80;;;21.80;99.90;;;;;;4163615;28;20049;-70
2023/08/25 00:05:55;;;;;;;7.78;2.63;;;21.90;99.90;;;;;;4160633;28;20033;-70
2023/08/25 00:07:55;;;;;;;9.35;2.78;;;21.80;99.90;;;;;;4160876;28;20060;-70
2023/08/25 00:09:57;;;;;;;3.38;2.03;;;21.90;99.90;;;;;;4161178;28;20080;-70
2023/08/25 00:11:57;;;;;;;2.72;1.80;;;21.80;99.90;;;;;;4159145;28;20035;-70
2023/08/25 00:13:58;;;;;;;3.35;2.10;;;21.90;99.90;;;;;;4159679;28;20057;-70
2023/08/25 00:15:59;;;;;;;3.40;1.92;;;21.90;99.90;;;;;;4159680;28;20034;-71
2023/08/25 00:17:59;;;;;;;4.25;2.20;;;22.00;99.90;;;;;;4161087;28;20397;-70
2023/08/25 00:20:00;;;;;;;3.75;1.90;;;22.00;99.90;;;;;;4160121;28;20104;-71
2023/08/25 00:22:02;;;;;;;3.88;1.90;;;22.00;99.90;;;;;;4158665;28;20041;-70
2023/08/25 00:24:02;;;;;;;4.38;1.67;;;22.00;99.90;;;;;;4159518;28;20107;-70
2023/08/25 00:26:03;;;;;;;4.60;2.03;;;22.00;99.90;;;;;;4156745;28;20038;-71
2023/08/25 00:28:04;;;;;;;4.20;2.15;;;22.00;99.90;;;;;;4157555;28;20032;-71
2023/08/25 00:30:06;;;;;;;3.53;2.03;;;22.00;99.90;;;;;;4152242;28;20032;-71
2023/08/25 00:32:07;;;;;;;4.40;1.88;;;22.10;99.90;;;;;;4160969;28;20087;-71
2023/08/25 00:34:07;;;;;;;2.67;1.83;;;22.10;99.90;;;;;;4163315;28;20041;-71
2023/08/25 00:36:08;;;;;;;4.05;2.67;;;22.10;99.90;;;;;;4159187;28;20493;-71
2023/08/25 00:38:09;;;;;;;3.10;2.00;;;22.10;99.90;;;;;;4161760;28;20038;-71
2023/08/25 00:40:10;;;;;;;5.90;2.78;;;22.10;99.90;;;;;;4161445;28;20095;-71
2023/08/25 00:42:11;;;;;;;4.65;2.22;;;22.10;99.90;;;;;;4165790;28;20053;-71
2023/08/25 00:44:12;;;;;;;5.00;2.72;;;22.10;99.90;;;;;;4161597;28;20044;-71
2023/08/25 00:46:13;;;;;;;4.68;2.17;;;22.10;99.90;;;;;;4162168;28;20034;-69
2023/08/25 00:48:13;;;;;;;4.47;2.03;;;22.10;99.90;;;;;;4164968;28;20037;-71
2023/08/25 00:50:14;;;;;;;4.13;2.40;;;22.00;99.90;;;;;;4165973;28;20034;-70
2023/08/25 00:52:16;;;;;;;3.97;2.17;;;22.00;99.90;;;;;;4164899;28;20455;-70
2023/08/25 00:54:17;;;;;;;3.47;2.40;;;22.10;99.90;;;;;;4164033;28;20025;-70
2023/08/25 00:56:19;;;;;;;4.93;2.25;;;22.00;99.90;;;;;;4162310;28;20036;-68
2023/08/25 00:58:20;;;;;;;3.13;2.00;;;22.00;99.90;;;;;;4160185;28;20144;-69
2023/08/25 01:00:22;;;;;;;3.55;1.77;;;22.00;99.90;;;;;;4161583;28;20029;-70
2023/08/25 01:02:23;;;;;;;4.60;2.00;;;22.00;99.90;;;;;;4164083;28;20493;-70
2023/08/25 01:04:24;;;;;;;3.72;1.90;;;22.00;99.90;;;;;;4163515;28;20153;-70
2023/08/25 01:06:24;;;;;;;3.55;1.83;;;22.00;99.90;;;;;;4161385;28;20030;-71
2023/08/25 01:08:25;;;;;;;2.83;1.80;;;22.00;99.90;;;;;;4164024;28;20057;-70
2023/08/25 01:10:42;;;;;;;3.20;2.25;;;22.00;99.90;;;;;;4163085;28;20030;-70
2023/08/25 01:13:10;;;;;;;5.47;2.30;;;22.10;99.90;;;;;;4162549;28;20064;-70
2023/08/25 01:15:33;;;;;;;3.28;2.03;;;22.10;99.90;;;;;;4161348;28;20408;-72
2023/08/25 01:18:03;;;;;;;5.95;2.50;;;22.10;99.90;;;;;;4161715;28;20057;-71
2023/08/25 01:20:07;;;;;;;4.32;2.35;;;22.10;99.90;;;;;;4162456;28;20022;-72
2023/08/25 01:22:20;;;;;;;7.63;2.78;;;22.00;99.90;;;;;;4163794;28;20391;-71
2023/08/25 01:24:25;;;;;;;4.43;2.47;;;22.00;99.90;;;;;;4163095;28;20111;-71
2023/08/25 01:26:27;;;;;;;4.20;2.67;;;21.90;99.90;;;;;;4163065;28;20033;-71
2023/08/25 01:28:28;;;;;;;5.20;2.45;;;21.90;99.90;;;;;;4160738;28;20465;-71
2023/08/25 01:30:30;;;;;;;7.95;3.15;;;21.90;99.90;;;;;;4162879;28;20037;-70
2023/08/25 01:32:30;;;;;;;8.93;3.47;;;21.80;99.90;;;;;;4164845;28;20083;-71
2023/08/25 01:34:31;;;;;;;10.82;3.40;;;21.80;99.90;;;;;;4161989;28;20448;-71
2023/08/25 01:37:23;;;;;;;7.18;2.60;;;21.60;99.90;;;;;;4162934;28;20038;-71
2023/08/25 01:39:25;;;;;;;4.78;2.30;;;21.60;99.90;;;;;;4112124;28;20147;-70
2023/08/25 01:41:44;;;;;;;4.38;2.58;;;21.60;99.90;;;;;;4111908;28;20035;-70
2023/08/25 01:43:48;;;;;;;3.28;2.45;;;21.60;99.90;;;;;;4112892;28;20039;-70
2023/08/25 01:45:49;;;;;;;4.07;2.00;;;21.60;99.90;;;;;;4161659;28;20033;-69
2023/08/25 01:47:52;;;;;;;4.78;2.05;;;21.60;99.90;;;;;;4163181;28;20048;-70
2023/08/25 01:49:53;;;;;;;4.45;2.13;;;21.60;99.90;;;;;;4163235;28;20040;-71
2023/08/25 01:51:54;;;;;;;3.17;1.85;;;21.60;99.90;;;;;;4162701;28;20453;-71
2023/08/25 01:53:56;;;;;;;3.38;2.20;;;21.70;99.90;;;;;;4162078;28;20486;-71
2023/08/25 01:55:57;;;;;;;3.80;1.88;;;21.70;99.90;;;;;;4162125;28;20033;-70
2023/08/25 01:57:58;;;;;;;2.75;2.10;;;21.70;99.90;;;;;;4164302;28;20556;-70
2023/08/25 01:59:58;;;;;;;2.58;2.17;;;21.70;99.90;;;;;;4161347;28;20033;-70
2023/08/25 02:01:59;;;;;;;5.32;2.28;;;21.70;99.90;;;;;;4161006;28;20033;-70
2023/08/25 02:03:59;;;;;;;4.55;2.22;;;21.70;99.90;;;;;;4161176;28;20136;-71
2023/08/25 02:06:00;;;;;;;3.65;2.00;;;21.70;99.90;;;;;;4161059;28;20045;-70
2023/08/25 02:08:01;;;;;;;4.78;1.88;;;21.80;99.90;;;;;;4162691;28;20420;-70
2023/08/25 02:10:02;;;;;;;4.10;2.22;;;21.80;99.90;;;;;;4162872;28;20080;-71
2023/08/25 02:12:03;;;;;;;3.10;1.73;;;21.80;99.90;;;;;;4161167;28;20059;-71
2023/08/25 02:14:04;;;;;;;3.88;2.17;;;21.80;99.90;;;;;;4161326;28;20804;-71
2023/08/25 02:16:05;;;;;;;3.13;1.80;;;21.80;99.90;;;;;;4162124;28;20052;-70
2023/08/25 02:18:05;;;;;;;3.13;1.90;;;21.80;99.90;;;;;;4162283;28;20034;-71
2023/08/25 02:20:27;;;;;;;1.95;1.50;;;21.80;99.90;;;;;;4158722;28;20409;-65
2023/08/25 02:22:27;;;;;;;3.83;1.98;;;21.90;99.90;;;;;;4158010;28;20509;-65
2023/08/25 02:24:30;;;;;;;5.28;2.33;;;21.80;99.90;;;;;;4162607;28;20220;-64
2023/08/25 02:26:30;;;;;;;2.78;2.00;;;21.80;99.90;;;;;;4162106;28;20034;-64
2023/08/25 02:28:31;;;;;;;4.57;2.25;;;21.80;99.90;;;;;;4162093;28;20128;-64
2023/08/25 02:30:32;;;;;;;3.28;2.13;;;21.80;99.90;;;;;;4161449;28;20079;-64
2023/08/25 02:32:32;;;;;;;3.13;2.00;;;21.80;99.90;;;;;;4162404;28;20444;-64
2023/08/25 02:34:33;;;;;;;5.30;2.22;;;21.80;99.90;;;;;;4160634;28;20040;-64
2023/08/25 02:36:33;;;;;;;2.78;1.88;;;21.80;99.90;;;;;;4162079;28;20072;-64
2023/08/25 02:38:35;;;;;;;3.75;2.05;;;21.80;99.90;;;;;;4162282;28;20042;-64
2023/08/25 02:40:37;;;;;;;3.15;2.10;;;21.80;99.90;;;;;;4159992;28;20089;-64
2023/08/25 02:42:38;;;;;;;;;;;21.80;99.90;;;;;;4160895;28;20041;-64
2023/08/25 02:44:38;;;;;;;4.05;2.22;;;21.80;99.90;;;;;;4161120;28;20522;-64
2023/08/25 02:46:40;;;;;;;2.67;1.92;;;21.70;99.90;;;;;;4161049;28;20048;-64
2023/08/25 02:48:40;;;;;;;5.00;2.00;;;21.80;99.90;;;;;;4162150;28;20026;-64
2023/08/25 02:50:41;;;;;;;3.03;1.77;;;21.70;99.90;;;;;;4190036;28;20615;-64
2023/08/25 02:52:41;;;;;;;4.38;2.58;;;21.70;99.90;;;;;;4162257;28;20033;-64
2023/08/25 02:54:42;;;;;;;6.13;2.03;;;21.70;99.90;;;;;;4161671;28;20076;-64
2023/08/25 02:56:43;;;;;;;2.13;1.80;;;21.70;99.90;;;;;;4161041;28;20367;-64
2023/08/25 02:58:43;;;;;;;3.53;2.03;;;21.70;99.90;;;;;;4162321;28;20382;-64
2023/08/25 03:00:44;;;;;;;3.20;2.10;;;21.70;99.90;;;;;;4161383;28;20044;-64
2023/08/25 03:02:45;;;;;;;3.08;2.05;;;21.70;99.90;;;;;;4159817;28;20041;-65
2023/08/25 03:04:45;;;;;;;2.95;1.90;;;21.70;99.90;;;;;;4161614;28;20049;-65
2023/08/25 03:06:47;;;;;;;4.32;2.30;;;21.70;99.90;;;;;;4148752;28;20497;-64
2023/08/25 03:08:48;;;;;;;3.95;2.10;;;21.70;99.90;;;;;;4161855;28;20083;-64
2023/08/25 03:10:49;;;;;;;3.47;1.92;;;21.70;99.90;;;;;;4161100;28;20481;-64
2023/08/25 03:12:49;;;;;;;4.22;2.05;;;21.70;99.90;;;;;;4161776;28;20041;-64
2023/08/25 03:14:50;;;;;;;3.42;2.47;;;21.70;99.90;;;;;;4161945;28;20037;-64
2023/08/25 03:16:50;;;;;;;4.03;2.08;;;21.70;99.90;;;;;;4163628;28;20551;-65
2023/08/25 03:18:51;;;;;;;3.17;2.00;;;21.70;99.90;;;;;;4161203;28;20481;-64
2023/08/25 03:20:52;;;;;;;6.70;2.15;;;21.70;99.90;;;;;;4161054;28;20045;-65
2023/08/25 03:22:54;;;;;;;3.53;2.22;;;21.60;99.90;;;;;;4160041;28;20042;-64
2023/08/25 03:24:54;;;;;;;3.10;2.13;;;21.60;99.90;;;;;;4160697;28;20033;-65
2023/08/25 03:26:57;;;;;;;4.93;1.77;;;21.60;99.90;;;;;;4159223;28;20026;-64
2023/08/25 03:28:58;;;;;;;3.50;2.10;;;21.60;99.90;;;;;;4161697;28;20029;-64
2023/08/25 03:30:58;;;;;;;3.00;1.88;;;21.60;99.90;;;;;;4160991;28;20032;-76
2023/08/25 03:32:59;;;;;;;3.78;2.03;;;21.60;99.90;;;;;;4161375;28;20036;-76
2023/08/25 03:35:00;;;;;;;4.03;2.40;;;21.60;99.90;;;;;;4164009;28;20029;-76
2023/08/25 03:37:02;;;;;;;4.00;2.33;;;21.60;99.90;;;;;;4161922;28;20501;-75
2023/08/25 03:39:04;;;;;;;4.47;2.10;;;21.60;99.90;;;;;;4160596;28;20065;-75
2023/08/25 03:41:05;;;;;;;;;;;21.60;99.90;;;;;;4161449;28;20037;-76
2023/08/25 03:43:06;;;;;;;3.03;1.83;;;21.60;99.90;;;;;;4161350;28;19944;-75
2023/08/25 03:45:07;;;;;;;3.10;1.73;;;21.60;99.90;;;;;;4161375;28;20030;-75
2023/08/25 03:47:08;;;;;;;3.75;2.03;;;21.50;99.90;;;;;;4158229;28;20041;-75
2023/08/25 03:49:09;;;;;;;2.78;1.80;;;21.50;99.90;;;;;;4158760;28;20030;-76
2023/08/25 03:51:10;;;;;;;2.27;2.00;;;21.50;99.90;;;;;;4159636;28;20022;-77
2023/08/25 03:53:10;;;;;;;2.42;1.80;;;21.40;99.90;;;;;;4161231;28;20095;-76
2023/08/25 03:55:11;;;;;;;3.35;2.05;;;21.40;99.90;;;;;;4159656;28;20045;-78
2023/08/25 03:57:12;;;;;;;2.35;1.65;;;21.40;99.90;;;;;;4160966;28;20083;-77
2023/08/25 03:59:12;;;;;;;4.35;1.85;;;21.40;99.90;;;;;;4161324;28;20037;-75
2023/08/25 04:01:13;;;;;;;3.17;2.00;;;21.40;99.90;;;;;;4161040;28;20478;-76
2023/08/25 04:03:13;;;;;;;3.55;1.92;;;21.30;99.90;;;;;;4162339;28;20053;-76
2023/08/25 04:05:14;;;;;;;2.78;2.03;;;21.30;99.90;;;;;;4160940;28;20033;-76
2023/08/25 04:07:15;;;;;;;2.28;1.83;;;21.30;99.90;;;;;;4138133;28;20040;-76
2023/08/25 04:09:15;;;;;;;2.30;1.95;;;21.30;99.90;;;;;;4160912;28;20486;-72
2023/08/25 04:11:16;;;;;;;2.58;1.88;;;21.30;99.90;;;;;;4159200;28;20030;-76
2023/08/25 04:13:16;;;;;;;2.40;1.90;;;21.30;99.90;;;;;;4160991;28;20026;-76
2023/08/25 04:15:20;;;;;;;3.45;1.65;;;21.30;99.90;;;;;;4160334;28;20490;-75
2023/08/25 04:17:20;;;;;;;2.60;1.92;;;21.30;99.90;;;;;;4162090;28;20030;-76
2023/08/25 04:19:21;;;;;;;2.78;1.67;;;21.20;99.90;;;;;;4161590;28;20025;-77
2023/08/25 04:21:22;;;;;;;3.25;1.70;;;21.20;99.90;;;;;;4159669;28;20092;-73
2023/08/25 04:23:25;;;;;;;2.40;1.70;;;21.20;99.90;;;;;;4161211;28;20076;-76
2023/08/25 04:25:27;;;;;;;1.98;1.73;;;21.20;99.90;;;;;;4155752;28;20087;-76
2023/08/25 04:27:28;;;;;;;3.45;1.77;;;21.20;99.90;;;;;;4159601;28;20036;-77
2023/08/25 04:29:28;;;;;;;2.70;1.80;;;21.10;99.90;;;;;;4160120;28;20057;-75
2023/08/25 04:31:29;;;;;;;2.55;1.70;;;21.10;99.90;;;;;;4155151;28;20366;-76
2023/08/25 04:33:30;;;;;;;2.15;1.58;;;21.10;99.90;;;;;;4160612;28;20041;-77
2023/08/25 04:35:30;;;;;;;1.80;1.48;;;21.10;99.90;;;;;;4160513;28;20140;-76
2023/08/25 04:37:31;;;;;;;1.48;1.10;;;21.10;99.90;;;;;;4161282;28;20498;-77
2023/08/25 04:39:31;;;;;;;1.67;1.30;;;21.10;99.90;;;;;;4161376;28;20449;-64
2023/08/25 04:41:32;;;;;;;1.30;1.20;;;21.00;99.90;;;;;;4160234;28;20088;-74
2023/08/25 04:43:33;;;;;;;1.58;1.42;;;20.90;99.90;;;;;;4155409;28;20082;-73
2023/08/25 04:45:33;;;;;;;1.40;1.30;;;20.90;99.90;;;;;;4168278;28;20033;-73
2023/08/25 04:47:34;;;;;;;1.20;1.10;;;20.90;99.90;;;;;;4157087;28;20099;-73
2023/08/25 04:49:34;;;;;;;1.30;1.20;;;20.90;99.90;;;;;;4160615;28;20033;-73
2023/08/25 04:51:35;;;;;;;1.30;1.20;;;20.90;99.90;;;;;;4160559;28;20104;-73
2023/08/25 04:53:35;;;;;;;2.72;1.50;;;20.90;99.90;;;;;;4159554;28;20397;-73
2023/08/25 04:55:36;;;;;;;3.13;1.77;;;20.90;99.90;;;;;;4160217;28;20045;-74
2023/08/25 04:57:37;;;;;;;3.65;2.33;;;20.90;99.90;;;;;;4161134;28;20053;-73
2023/08/25 04:59:37;;;;;;;2.95;2.10;;;20.90;99.90;;;;;;4160977;28;20555;-73
2023/08/25 05:01:39;;;;;;;2.42;2.00;;;20.90;99.90;;;;;;4159037;28;20485;-73
2023/08/25 05:03:39;;;;;;;2.83;1.60;;;21.00;99.90;;;;;;4160715;28;20077;-72
2023/08/25 05:05:40;;;;;;;2.53;1.77;;;20.90;99.90;;;;;;4160175;28;20037;-71
2023/08/25 05:07:41;;;;;;;1.60;1.50;;;20.90;99.90;;;;;;4160548;28;20140;-72
2023/08/25 05:09:42;;;;;;;2.20;2.00;;;20.90;99.90;;;;;;4161103;28;20053;-71
2023/08/25 05:11:43;;;;;;;2.30;1.65;;;20.90;99.90;;;;;;4159942;28;22489;-72
2023/08/25 05:13:44;;;;;;;2.45;1.95;;;20.90;99.90;;;;;;4160971;28;20508;-71
2023/08/25 05:15:44;;;;;;;2.05;1.80;;;20.90;99.90;;;;;;4154442;28;20497;-72
2023/08/25 05:17:45;;;;;;;2.83;1.70;;;20.90;99.90;;;;;;4166340;28;20022;-72
2023/08/25 05:19:46;;;;;;;2.58;1.63;;;20.90;99.90;;;;;;4163965;28;20489;-72
2023/08/25 05:21:46;;;;;;;2.25;1.67;;;21.00;99.90;;;;;;4163562;28;20030;-70
2023/08/25 05:23:48;;;;;;;2.30;2.00;;;21.00;99.90;;;;;;4164482;28;20101;-70
2023/08/25 05:25:49;;;;;;;2.23;1.97;;;21.00;99.90;;;;;;4164036;28;20022;-72
2023/08/25 05:27:49;;;;;;;2.55;2.20;;;21.00;99.90;;;;;;4160293;28;20367;-71
2023/08/25 05:29:50;;;;;;;4.28;2.00;;;21.00;99.90;;;;;;4164784;28;20034;-73
2023/08/25 05:31:51;;;;;;;5.57;2.75;;;21.00;99.90;;;;;;4194958;28;20029;-71
2023/08/25 05:33:52;;;;;;;2.83;2.33;;;21.10;99.90;;;;;;4163978;28;20036;-71
2023/08/25 05:35:52;;;;;;;3.15;2.17;;;21.10;99.90;;;;;;4160424;28;20466;-72
2023/08/25 05:37:53;;;;;;;3.85;2.42;;;21.10;99.90;;;;;;4194518;28;20044;-72
2023/08/25 05:39:53;;;;;;;3.25;2.25;;;21.10;99.90;;;;;;4162208;28;20547;-71
2023/08/25 05:41:54;;;;;;;3.60;2.28;;;21.20;99.90;;;;;;4158392;28;20052;-72
2023/08/25 05:43:55;;;;;;;4.05;2.33;;;21.20;99.90;;;;;;4163050;28;20040;-71
2023/08/25 05:45:55;;;;;;;3.40;2.40;;;21.20;99.90;;;;;;4159038;28;20126;-71
2023/08/25 05:47:56;;;;;;;5.57;1.95;;;21.20;99.90;;;;;;4163299;28;20033;-72
2023/08/25 05:49:59;;;;;;;3.03;2.20;;;21.30;99.90;;;;;;4162063;28;20072;-70
2023/08/25 05:51:59;;;;;;;2.40;1.77;;;21.30;99.90;;;;;;4162501;28;20108;-63
2023/08/25 05:54:00;;;;;;;2.72;2.13;;;21.30;99.90;;;;;;4161989;28;20026;-63
2023/08/25 05:56:01;;;;;;;4.05;2.17;;;21.30;99.90;;;;;;4160731;28;20370;-63
2023/08/25 05:58:02;;;;;;;2.92;2.20;;;21.30;99.90;;;;;;4153941;28;20031;-63
2023/08/25 06:00:05;;;;;;;5.53;2.65;;;21.40;99.90;;;;;;4160473;28;20482;-63
2023/08/25 06:02:06;;;;;;;3.47;2.38;;;21.40;99.90;;;;;;4159353;28;20495;-62
2023/08/25 06:04:06;;;;;;;4.35;2.90;;;21.40;99.90;;;;;;4159969;28;21697;-63
2023/08/25 06:06:07;;;;;;;4.90;3.15;;;21.50;99.90;;;;;;4161303;28;20053;-63
2023/08/25 06:08:08;;;;;;;4.97;3.08;;;21.50;99.90;;;;;;4128558;28;20040;-62
2023/08/25 06:10:09;;;;;;;6.03;3.40;;;21.50;99.90;;;;;;4112042;28;20053;-64
2023/08/25 06:12:11;;;;;;;5.65;3.58;;;21.50;99.90;;;;;;4158372;28;20044;-63
2023/08/25 06:14:12;;;;;;;6.43;3.83;;;21.60;99.90;;;;;;4161620;28;20029;-64
2023/08/25 06:16:12;;;;;;;4.70;3.60;;;21.60;99.90;;;;;;4159347;28;20502;-63
2023/08/25 06:18:13;;;;;;;5.60;3.70;;;21.60;99.90;;;;;;4161539;28;20036;-63
2023/08/25 06:20:13;;;;;;;9.02;4.00;;;21.70;99.90;;;;;;4160515;28;20029;-64
2023/08/25 06:22:14;;;;;;;5.15;3.92;;;21.70;99.90;;;;;;4121891;28;20426;-62
2023/08/25 06:24:15;;;;;;;5.65;4.22;;;21.70;99.90;;;;;;4161304;28;20065;-63
2023/08/25 06:26:15;;;;;;;9.85;4.32;;;21.70;99.90;;;;;;4158883;28;20053;-63
2023/08/25 06:28:16;;;;;;;6.05;4.30;;;21.70;99.90;;;;;;4160337;28;20095;-63
2023/08/25 06:30:17;;;;;;;8.23;4.15;;;21.70;99.90;;;;;;4160132;28;20034;-63
2023/08/25 06:32:18;;;;;;;5.68;4.22;;;21.80;99.90;;;;;;4161041;28;20030;-63
2023/08/25 06:34:18;;;;;;;6.03;4.28;;;21.70;99.90;;;;;;4161693;28;20421;-64
2023/08/25 06:36:19;;;;;;;6.20;3.40;;;21.80;99.90;;;;;;4160502;28;20112;-63
2023/08/25 06:38:19;;;;;;;4.43;3.63;;;21.80;99.90;;;;;;4161159;28;20034;-63
2023/08/25 06:40:20;;;;;;;6.47;3.90;;;21.90;99.90;;;;;;4159235;28;20041;-63
2023/08/25 06:42:21;;;;;;;7.53;3.38;;;22.00;99.90;;;;;;4159547;28;20065;-63
2023/08/25 06:44:22;;;;;;;4.10;2.83;;;22.00;99.90;;;;;;4161232;28;20040;-63
2023/08/25 06:46:22;;;;;;;5.85;3.67;;;22.00;99.90;;;;;;4160581;28;20072;-62
2023/08/25 06:48:23;;;;;;;5.32;3.50;;;22.10;99.90;;;;;;4159692;28;20500;-63
2023/08/25 06:50:24;;;;;;;5.28;3.63;;;22.10;99.90;;;;;;4159336;28;20042;-63
2023/08/25 06:52:25;;;;;;;9.50;3.70;;;22.10;99.90;;;;;;4160017;28;20034;-62
2023/08/25 06:54:26;;;;;;;4.68;3.00;;;22.10;99.90;;;;;;4120813;28;20064;-62
2023/08/25 06:56:27;;;;;;;6.43;3.10;;;22.10;99.90;;;;;;4154809;28;20033;-62
2023/08/25 06:58:27;;;;;;;6.15;3.47;;;22.10;99.90;;;;;;4159727;28;20481;-62
2023/08/25 07:00:29;;;;;;;3.90;2.83;;;22.10;99.90;;;;;;4158840;28;20033;-65
2023/08/25 07:02:29;;;;;;;5.35;2.80;;;22.10;99.90;;;;;;4136956;28;20503;-64
2023/08/25 07:04:30;;;;;;;6.18;3.50;;;22.10;99.90;;;;;;4130883;28;20077;-64
2023/08/25 07:06:31;;;;;;;4.97;2.72;;;22.20;99.90;;;;;;4141549;28;20033;-64
2023/08/25 07:08:32;;;;;;;5.47;3.22;;;22.20;99.90;;;;;;4171623;28;20044;-64
2023/08/25 07:10:34;;;;;;;5.70;2.97;;;22.20;99.90;;;;;;4158261;28;20037;-64
2023/08/25 07:12:35;;;;;;;5.20;3.28;;;22.20;99.90;;;;;;4158212;28;20120;-64
2023/08/25 07:14:35;;;;;;;5.18;3.25;;;22.20;99.90;;;;;;4161212;28;20037;-64
2023/08/25 07:16:36;;;;;;;4.18;3.00;;;22.20;99.90;;;;;;4160091;28;20029;-64
2023/08/25 07:18:37;;;;;;;4.20;2.85;;;22.20;99.90;;;;;;4160791;28;20048;-64
2023/08/25 07:20:38;;;;;;;6.28;3.10;;;22.20;99.90;;;;;;4093726;28;20095;-64
2023/08/25 07:22:40;;;;;;;8.50;3.47;;;22.20;99.90;;;;;;4115607;28;20558;-65
2023/08/25 07:24:40;;;;;;;7.90;4.07;;;22.10;99.90;;;;;;4097546;28;20053;-66
2023/08/25 07:26:42;;;;;;;7.50;3.58;;;22.10;99.90;;;;;;4058898;28;20037;-66
2023/08/25 07:28:44;;;;;;;4.90;3.60;;;22.00;99.90;;;;;;4146032;28;20065;-65
2023/08/25 07:30:44;;;;;;;7.97;3.78;;;21.90;99.90;;;;;;4156267;28;20045;-66
2023/08/25 07:32:45;;;;;;;10.70;3.78;;;21.90;99.90;;;;;;4143808;28;20029;-66
2023/08/25 07:34:46;;;;;;;7.78;3.90;;;21.90;99.90;;;;;;4143596;28;20033;-65
2023/08/25 07:36:46;;;;;;;7.03;3.83;;;21.80;99.90;;;;;;4141311;28;20026;-66
2023/08/25 07:38:47;;;;;;;6.43;3.83;;;21.80;99.90;;;;;;4153308;28;20025;-66
2023/08/25 07:40:48;;;;;;;4.72;3.15;;;21.60;99.90;;;;;;4157177;28;20030;-65
2023/08/25 07:42:49;;;;;;;5.35;3.80;;;21.60;99.90;;;;;;4159066;28;20040;-66
2023/08/25 07:44:50;;;;;;;6.82;3.53;;;21.70;99.90;;;;;;4160982;28;20034;-66
2023/08/25 07:46:50;;;;;;;4.57;3.30;;;21.70;99.90;;;;;;4157348;28;20072;-66
2023/08/25 07:48:51;;;;;;;10.65;4.13;;;21.70;99.90;;;;;;4156827;28;20029;-66
2023/08/25 07:50:52;;;;;;;6.13;3.60;;;21.60;99.90;;;;;;4160314;28;20424;-66
2023/08/25 07:52:53;;;;;;;5.63;2.80;;;21.60;99.90;;;;;;4154664;28;20033;-66
2023/08/25 07:54:54;;;;;;;6.72;3.33;;;21.60;99.90;;;;;;4160026;28;20092;-66
2023/08/25 07:56:55;;;;;;;7.15;3.85;;;21.60;99.90;;;;;;4157078;28;20038;-66
2023/08/25 07:58:55;;;;;;;6.07;3.63;;;21.60;99.90;;;;;;4160547;28;20544;-66
2023/08/25 08:00:56;;;;;;;5.55;3.13;;;21.50;99.90;;;;;;4150978;28;20040;-65
2023/08/25 08:02:56;;;;;;;7.90;4.40;;;21.50;99.90;;;;;;4155885;28;20034;-66
2023/08/25 08:04:57;;;;;;;7.80;4.05;;;21.40;99.90;;;;;;4156838;28;20055;-66
2023/08/25 08:07:00;;;;;;;6.70;3.70;;;21.30;99.90;;;;;;4156029;28;20065;-66
2023/08/25 08:09:01;;;;;;;8.02;3.08;;;21.20;99.90;;;;;;4157089;28;20071;-66
2023/08/25 08:11:01;;;;;;;9.18;4.05;;;21.20;99.90;;;;;;4157580;28;20478;-66
2023/08/25 08:13:03;;;;;;;6.25;3.50;;;21.10;99.90;;;;;;4155240;28;20026;-66
2023/08/25 08:15:04;;;;;;;6.70;3.80;;;21.10;99.90;;;;;;4156715;28;20536;-66
2023/08/25 08:17:05;;;;;;;6.65;3.75;;;20.90;99.90;;;;;;4154017;28;20041;-66
2023/08/25 08:19:05;;;;;;;4.80;2.88;;;20.90;99.90;;;;;;4157012;28;20116;-66
2023/08/25 08:21:07;;;;;;;3.88;2.58;;;20.80;99.90;;;;;;4156196;28;20033;-66
2023/08/25 08:23:07;;;;;;;7.05;3.00;;;20.80;99.90;;;;;;4156002;28;20116;-69
2023/08/25 08:25:10;;;;;;;7.07;3.83;;;20.90;99.90;;;;;;4141474;28;20387;-67
2023/08/25 08:27:10;;;;;;;7.03;3.08;;;20.80;99.90;;;;;;4157546;28;20026;-67
2023/08/25 08:29:11;;;;;;;4.47;2.80;;;20.90;99.90;;;;;;4159285;28;20026;-67
2023/08/25 08:31:18;;;;;;;4.93;2.85;;;20.90;99.90;;;;;;4158912;28;20033;-67
2023/08/25 08:33:18;;;;;;;8.40;3.17;;;20.90;99.90;;;;;;4157442;28;20155;-67
2023/08/25 08:35:19;;;;;;;5.57;3.20;;;20.90;99.90;;;;;;4158957;28;20478;-67
2023/08/25 08:37:19;;;;;;;6.75;3.17;;;20.90;99.90;;;;;;4159740;28;20472;-67
2023/08/25 08:39:21;;;;;;;5.18;3.25;;;20.90;99.90;;;;;;4161889;28;20034;-66
2023/08/25 08:41:21;;;;;;;4.43;2.80;;;20.90;99.90;;;;;;4157714;28;20033;-66
2023/08/25 08:43:22;;;;;;;4.13;2.65;;;21.00;99.90;;;;;;4158658;28;20038;-67
2023/08/25 08:45:26;;;;;;;3.58;2.80;;;21.00;99.90;;;;;;4158469;28;20091;-67
2023/08/25 08:47:27;;;;;;;2.85;2.35;;;21.00;99.90;;;;;;4156755;28;20087;-67
2023/08/25 08:49:28;;;;;;;4.45;2.55;;;21.10;99.90;;;;;;4157122;28;20394;-66
2023/08/25 08:51:30;;;;;;;5.15;3.10;;;21.10;99.90;;;;;;4159342;28;20105;-67
2023/08/25 08:53:31;;;;;;;7.25;2.80;;;21.10;99.90;;;;;;4162856;28;20025;-67
2023/08/25 08:55:34;;;;;;;5.85;2.60;;;21.10;99.90;;;;;;4162072;28;20029;-67
2023/08/25 08:57:34;;;;;;;6.97;3.33;;;21.10;99.90;;;;;;4163579;28;20026;-67
2023/08/25 08:59:35;;;;;;;6.55;3.47;;;21.10;99.90;;;;;;4162968;28;20037;-67
2023/08/25 09:01:37;;;;;;;4.43;2.72;;;21.10;99.90;;;;;;4162081;28;20076;-67
2023/08/25 09:03:39;;;;;;;6.80;2.67;;;21.10;99.90;;;;;;4162276;28;20041;-67
2023/08/25 09:05:41;;;;;;;4.97;3.08;;;21.10;99.90;;;;;;4158728;28;20274;-67
2023/08/25 09:07:43;;;;;;;4.60;2.80;;;21.20;99.90;;;;;;4177995;28;20103;-67
2023/08/25 09:09:45;;;;;;;7.25;2.88;;;21.10;99.90;;;;;;4162078;28;20073;-67
2023/08/25 09:11:46;;;;;;;;;;;21.10;99.90;;;;;;4158989;28;20397;-67
2023/08/25 09:13:57;;;;;;;4.35;2.65;;;21.10;99.90;;;;;;4160437;28;19916;-67
2023/08/25 09:15:58;;;;;;;4.15;2.60;;;21.10;99.90;;;;;;4160694;28;20041;-66
2023/08/25 09:18:06;;;;;;;3.50;2.28;;;21.00;99.90;;;;;;4162549;28;20033;-66
2023/08/25 09:20:10;;;;;;;4.20;2.58;;;21.00;99.90;;;;;;4160432;28;20064;-67
2023/08/25 09:22:13;;;;;;;5.57;2.72;;;21.00;99.90;;;;;;4160493;28;20029;-80
2023/08/25 09:24:21;;;;;;;5.70;2.80;;;20.90;99.90;;;;;;4161135;28;20571;-81
2023/08/25 09:26:23;;;;;;;4.10;2.20;;;20.90;99.90;;;;;;4160010;28;20061;-80
2023/08/25 09:28:24;;;;;;;5.15;2.28;;;20.90;99.90;;;;;;4162758;28;20378;-80
2023/08/25 09:30:42;;;;;;;5.18;2.28;;;20.80;99.90;;;;;;4158600;28;20575;-70
2023/08/25 09:32:42;;;;;;;4.47;2.20;;;20.70;99.90;;;;;;4150494;28;20065;-77
2023/08/25 09:34:43;;;;;;;5.20;2.25;;;20.60;99.90;;;;;;4160417;28;20104;-80
2023/08/25 09:36:52;;;;;;;6.40;2.28;;;20.50;99.90;;;;;;4161753;28;20433;-81
2023/08/25 09:38:53;;;;;;;6.55;2.20;;;20.50;99.90;;;;;;4162364;28;20108;-83
2023/08/25 09:40:53;;;;;;;6.50;2.45;;;20.50;99.90;;;;;;4162089;28;20481;-83
2023/08/25 09:43:02;;;;;;;5.60;2.28;;;20.40;99.90;;;;;;4158917;28;20069;-82
2023/08/25 09:45:03;;;;;;;5.18;2.05;;;20.40;99.90;;;;;;4161635;28;20037;-81
2023/08/25 09:47:06;;;;;;;3.22;1.77;;;20.30;99.90;;;;;;4162874;28;20044;-81
2023/08/25 09:49:11;;;;;;;5.20;2.00;;;20.30;99.90;;;;;;4159843;28;20482;-79
2023/08/25 09:51:15;;;;;;;8.35;1.98;;;20.30;99.90;;;;;;4161783;28;20137;-82
2023/08/25 09:53:16;;;;;;;4.28;1.80;;;20.30;99.90;;;;;;4161442;28;20118;-82
2023/08/25 09:55:18;;;;;;;3.50;1.70;;;20.30;99.90;;;;;;4161047;28;20029;-82
2023/08/25 09:57:20;;;;;;;8.18;2.22;;;20.20;99.90;;;;;;4162312;28;20030;-83
2023/08/25 09:59:21;;;;;;;3.17;1.83;;;20.20;99.90;;;;;;4161807;28;20061;-82
2023/08/25 10:01:22;;;;;;;4.88;1.90;;;20.20;99.90;;;;;;4161153;28;20033;-79
2023/08/25 10:03:22;;;;;;;6.57;1.85;;;20.10;99.90;;;;;;4159853;28;20046;-82
2023/08/25 10:05:23;;;;;;;7.13;1.73;;;20.10;99.90;;;;;;4162065;28;20520;-81
2023/08/25 10:07:25;;;;;;;3.40;1.42;;;20.10;99.90;;;;;;4162143;28;20030;-79
2023/08/25 10:09:26;;;;;;;4.60;1.93;;;20.00;99.90;;;;;;4160972;28;20107;-77
2023/08/25 10:11:41;;;;;;;3.50;1.40;;;20.00;99.90;;;;;;4161235;28;20033;-77
2023/08/25 10:13:44;;;;;;;1.88;1.30;;;20.00;99.90;;;;;;4161152;28;20125;-70
2023/08/25 10:15:46;;;;;;;2.88;1.50;;;20.00;99.90;;;;;;4160054;28;20041;-79
2023/08/25 10:17:47;;;;;;;3.08;1.92;;;20.00;99.90;;;;;;4158981;28;20468;-78
2023/08/25 10:19:54;;;;;;;5.63;2.85;;;19.90;99.90;;;;;;4162346;28;20084;-81
2023/08/25 10:21:55;;;;;;;5.70;3.50;;;19.90;99.90;;;;;;4158596;28;20025;-80
2023/08/25 10:23:59;;;;;;;6.40;2.90;;;19.80;99.90;;;;;;4158884;28;20045;-77
2023/08/25 10:26:00;;;;;;;5.50;2.70;;;19.80;99.90;;;;;;4151588;28;20025;-81
2023/08/25 10:28:03;;;;;;;12.32;4.60;;;19.80;99.90;;;;;;4159053;28;20094;-78
2023/08/25 10:30:06;;;;;;;5.57;3.85;;;19.80;99.90;;;;;;4175575;28;20033;-67
2023/08/25 10:32:07;;;;;;;14.27;4.38;;;19.80;99.90;;;;;;4155584;28;20033;-67
2023/08/25 10:34:35;;;;;;;8.18;3.67;;;19.70;99.90;;;;;;4162041;28;20570;-66
2023/08/25 10:36:42;;;;;;;5.00;2.53;;;19.70;99.90;;;;;;4157600;28;20043;-66